createdAt,value
2023-02-06T00:03:29.416Z,102162.53
2023-02-06T00:08:32.041Z,102170.25
2023-02-06T00:13:35.957Z,102182.31
2023-02-06T00:18:38.464Z,102176.75
2023-02-06T00:23:42.040Z,102162.81
2023-02-06T00:28:45.653Z,102166.44
2023-02-06T00:33:48.767Z,102169.00
2023-02-06T00:38:51.782Z,102153.91
2023-02-06T00:43:55.889Z,102158.25
2023-02-06T00:48:59.799Z,102164.81
2023-02-06T00:54:04.962Z,102149.81
2023-02-06T00:59:07.814Z,102158.44
2023-02-06T01:04:10.478Z,102174.06
2023-02-06T01:09:13.821Z,102176.53
2023-02-06T01:14:16.579Z,102180.78
2023-02-06T01:19:19.366Z,102189.34
2023-02-06T01:24:23.052Z,102184.97
2023-02-06T01:29:25.865Z,102193.13
2023-02-06T01:34:28.549Z,102190.19
2023-02-06T01:39:31.479Z,102196.09
2023-02-06T01:44:34.346Z,102197.41
2023-02-06T01:49:50.644Z,102203.03
2023-02-06T01:55:01.730Z,102202.66
2023-02-06T02:00:08.873Z,102199.53
2023-02-06T02:05:14.817Z,102195.78
2023-02-06T02:10:18.020Z,102204.56
2023-02-06T02:15:25.607Z,102204.59
2023-02-06T02:21:03.564Z,102216.78
2023-02-06T02:26:24.841Z,102217.63
2023-02-06T02:31:46.343Z,102211.97
2023-02-06T02:37:15.012Z,102215.19
2023-02-06T02:42:38.750Z,102212.84
2023-02-06T02:48:01.036Z,102199.75
2023-02-06T02:53:05.370Z,102222.13
2023-02-06T02:58:13.395Z,102215.13
2023-02-06T03:03:22.342Z,102196.84
2023-02-06T03:08:47.048Z,102216.66
2023-02-06T03:14:08.044Z,102220.31
2023-02-06T03:19:26.754Z,102209.47
2023-02-06T03:24:33.558Z,102206.63
2023-02-06T03:29:38.676Z,102210.16
2023-02-06T03:35:00.517Z,102220.47
2023-02-06T03:40:04.274Z,102217.81
2023-02-06T03:45:14.230Z,102231.47
2023-02-06T03:50:17.788Z,102232.03
2023-02-06T03:55:23.929Z,102233.97
2023-02-06T04:00:27.695Z,102240.66
2023-02-06T04:05:30.932Z,102240.66
2023-02-06T04:10:33.913Z,102237.13
2023-02-06T04:15:36.904Z,102242.19
2023-02-06T04:20:41.171Z,102246.88
2023-02-06T04:25:43.841Z,102242.78
2023-02-06T04:30:47.940Z,102247.28
2023-02-06T04:35:51.129Z,102240.72
2023-02-06T04:40:53.907Z,102223.16
2023-02-06T04:45:57.079Z,102235.13
2023-02-06T04:51:00.245Z,102245.75
2023-02-06T04:56:08.767Z,102237.31
2023-02-06T05:01:11.689Z,102249.16
2023-02-06T05:06:14.778Z,102243.22
2023-02-06T05:11:17.740Z,102256.88
2023-02-06T05:16:20.858Z,102250.06
2023-02-06T05:21:24.792Z,102256.16
2023-02-06T05:26:27.614Z,102258.00
2023-02-06T05:31:30.705Z,102266.19
2023-02-06T05:36:33.707Z,102260.03
2023-02-06T05:41:36.351Z,102271.84
2023-02-06T05:46:39.506Z,102264.31
2023-02-06T05:51:42.109Z,102262.84
2023-02-06T05:56:45.761Z,102261.00
2023-02-06T06:01:48.644Z,102274.50
2023-02-06T06:06:53.291Z,102264.44
2023-02-06T06:11:56.818Z,102250.50
2023-02-06T06:16:59.521Z,102270.16
2023-02-06T06:22:02.371Z,102273.47
2023-02-06T06:27:05.228Z,102275.03
2023-02-06T06:32:07.909Z,102275.16
2023-02-06T06:37:10.823Z,102285.25
2023-02-06T06:42:13.704Z,102296.22
2023-02-06T06:47:16.225Z,102293.88
2023-02-06T06:52:24.883Z,102294.38
2023-02-06T06:57:32.029Z,102297.63
2023-02-06T07:02:34.663Z,102292.59
2023-02-06T07:07:39.226Z,102289.56
2023-02-06T07:12:41.844Z,102299.31
2023-02-06T07:17:44.457Z,102287.06
2023-02-06T07:22:47.839Z,102292.88
2023-02-06T07:27:50.829Z,102295.34
2023-02-06T07:32:53.415Z,102297.38
2023-02-06T07:37:56.813Z,102304.06
2023-02-06T07:42:59.589Z,102297.66
2023-02-06T07:48:09.716Z,102295.53
2023-02-06T07:53:12.408Z,102293.63
2023-02-06T07:58:15.136Z,102297.38
2023-02-06T08:03:17.912Z,102298.03
2023-02-06T08:08:20.543Z,102296.72
2023-02-06T08:13:23.084Z,102300.84
2023-02-06T08:18:25.722Z,102302.56
2023-02-06T08:23:28.611Z,102302.44
2023-02-06T08:28:32.512Z,102296.59
2023-02-06T08:33:34.991Z,102278.66
2023-02-06T08:38:38.191Z,102285.50
2023-02-06T08:43:40.872Z,102287.16
2023-02-06T08:48:43.835Z,102282.50
2023-02-06T08:53:46.530Z,102278.50
2023-02-06T08:58:49.091Z,102274.13
2023-02-06T09:03:55.572Z,102279.91
2023-02-06T09:08:58.434Z,102253.28
2023-02-06T09:14:02.911Z,102263.59
2023-02-06T09:19:06.730Z,102263.66
2023-02-06T09:24:09.894Z,102259.88
2023-02-06T09:29:13.141Z,102273.91
2023-02-06T09:34:15.821Z,102275.41
2023-02-06T09:39:18.307Z,102259.44
2023-02-06T09:44:49.094Z,102261.75
2023-02-06T09:49:53.607Z,102254.00
2023-02-06T09:55:08.316Z,102243.88
2023-02-06T10:00:29.245Z,102236.09
2023-02-06T10:05:41.222Z,102231.63
2023-02-06T10:10:51.151Z,102227.16
2023-02-06T10:16:05.014Z,102225.31
2023-02-06T10:21:26.466Z,102221.53
2023-02-06T10:26:31.150Z,102220.94
2023-02-06T10:31:50.308Z,102221.25
2023-02-06T10:36:59.195Z,102222.16
2023-02-06T10:42:21.777Z,102213.81
2023-02-06T10:47:44.112Z,102197.59
2023-02-06T10:52:48.976Z,102202.63
2023-02-06T10:58:16.793Z,102217.88
2023-02-06T11:03:33.869Z,102206.69
2023-02-06T11:08:42.096Z,102197.94
2023-02-06T11:13:48.422Z,102186.94
2023-02-06T11:18:53.035Z,102178.78
2023-02-06T11:24:16.616Z,102167.34
2023-02-06T11:29:27.271Z,102166.53
2023-02-06T11:34:54.958Z,102172.91
2023-02-06T11:40:20.232Z,102183.22
2023-02-06T11:45:32.991Z,102184.53
2023-02-06T11:50:36.914Z,102188.41
2023-02-06T11:55:42.844Z,102175.56
2023-02-06T12:00:51.393Z,102174.31
2023-02-06T12:06:18.128Z,102190.72
2023-02-06T12:11:26.325Z,102183.44
2023-02-06T12:16:33.242Z,102193.38
2023-02-06T12:21:56.330Z,102197.56
2023-02-06T12:27:06.958Z,102190.25
2023-02-06T12:32:24.744Z,102185.31
2023-02-06T12:37:40.590Z,102187.28
2023-02-06T12:42:48.344Z,102168.09
2023-02-06T12:48:13.775Z,102184.47
2023-02-06T12:53:29.823Z,102177.88
2023-02-06T12:58:44.880Z,102177.50
2023-02-06T13:04:00.724Z,102182.88
2023-02-06T13:09:07.654Z,102183.59
2023-02-06T13:14:27.875Z,102169.75
2023-02-06T13:19:39.232Z,102188.25
2023-02-06T13:24:47.252Z,102194.53
2023-02-06T13:29:54.142Z,102200.16
2023-02-06T13:35:07.516Z,102200.91
2023-02-06T13:40:27.011Z,102204.81
2023-02-06T13:45:32.589Z,102210.03
2023-02-06T13:50:44.181Z,102211.44
2023-02-06T13:56:27.306Z,102200.38
2023-02-06T14:01:31.814Z,102209.91
2023-02-06T14:06:52.223Z,102215.03
2023-02-06T14:12:36.924Z,102211.91
2023-02-06T14:18:28.902Z,102219.59
2023-02-06T14:23:37.751Z,102220.78
2023-02-06T14:29:35.039Z,102220.63
2023-02-06T14:35:56.585Z,102241.56
2023-02-06T14:41:02.187Z,102261.09
2023-02-06T14:46:08.793Z,102254.25
2023-02-06T14:51:34.725Z,102250.84
2023-02-06T14:56:39.639Z,102263.97
2023-02-06T15:01:49.311Z,102268.97
2023-02-06T15:06:59.689Z,102262.94
2023-02-06T15:12:16.997Z,102278.25
2023-02-06T15:17:23.441Z,102264.78
2023-02-06T15:22:29.616Z,102268.72
2023-02-06T15:27:35.632Z,102270.19
2023-02-06T15:32:40.838Z,102284.28
2023-02-06T15:38:15.766Z,102285.03
2023-02-06T15:43:21.617Z,102282.00
2023-02-06T15:48:52.746Z,102291.41
2023-02-06T15:54:09.835Z,102306.31
2023-02-06T15:59:24.412Z,102305.69
2023-02-06T16:04:39.984Z,102309.25
2023-02-06T16:09:50.860Z,102305.88
2023-02-06T16:14:58.400Z,102311.38
2023-02-06T16:20:34.659Z,102313.78
2023-02-06T16:25:38.674Z,102325.47
2023-02-06T16:30:42.197Z,102325.81
2023-02-06T16:35:45.229Z,102309.47
2023-02-06T16:40:50.868Z,102305.09
2023-02-06T16:45:53.944Z,102300.78
2023-02-06T16:50:56.503Z,102293.97
2023-02-06T16:55:59.246Z,102291.53
2023-02-06T17:01:02.423Z,102297.16
2023-02-06T17:06:07.543Z,102305.84
2023-02-06T17:11:11.387Z,102311.94
2023-02-06T17:16:25.281Z,102319.94
2023-02-06T17:21:32.837Z,102316.97
2023-02-06T17:26:35.493Z,102320.72
2023-02-06T17:31:38.170Z,102324.34
2023-02-06T17:36:41.133Z,102309.66
2023-02-06T17:41:44.937Z,102289.19
2023-02-06T17:46:50.004Z,102314.91
2023-02-06T17:51:54.025Z,102312.81
2023-02-06T17:56:57.276Z,102297.66
2023-02-06T18:02:00.170Z,102301.72
2023-02-06T18:07:03.000Z,102300.69
2023-02-06T18:12:06.118Z,102300.91
2023-02-06T18:17:09.253Z,102287.56
2023-02-06T18:22:16.420Z,102293.94
2023-02-06T18:27:21.641Z,102287.56
2023-02-06T18:32:25.445Z,102298.69
2023-02-06T18:37:28.455Z,102304.75
2023-02-06T18:42:49.651Z,102293.25
2023-02-06T18:47:53.074Z,102299.22
2023-02-06T18:52:56.390Z,102291.81
2023-02-06T18:57:59.919Z,102301.38
2023-02-06T19:03:02.792Z,102302.63
2023-02-06T19:08:05.623Z,102298.78
2023-02-06T19:13:08.371Z,102297.91
2023-02-06T19:18:11.226Z,102300.75
2023-02-06T19:23:13.945Z,102299.47
2023-02-06T19:28:16.837Z,102294.78
2023-02-06T19:33:20.100Z,102305.44
2023-02-06T19:38:23.283Z,102296.00
2023-02-06T19:43:26.085Z,102289.50
2023-02-06T19:48:29.016Z,102293.16
2023-02-06T19:53:34.370Z,102294.41
2023-02-06T19:58:37.149Z,102269.22
2023-02-06T20:03:39.820Z,102284.13
2023-02-06T20:08:44.873Z,102285.66
2023-02-06T20:13:52.253Z,102290.41
2023-02-06T20:18:56.455Z,102280.66
2023-02-06T20:24:03.407Z,102273.88
2023-02-06T20:29:07.162Z,102281.69
2023-02-06T20:34:09.713Z,102268.88
2023-02-06T20:39:13.835Z,102278.66
2023-02-06T20:44:17.066Z,102268.34
2023-02-06T20:49:26.111Z,102262.25
2023-02-06T20:54:28.843Z,102262.66
2023-02-06T20:59:31.788Z,102254.09
2023-02-06T21:04:34.599Z,102241.97
2023-02-06T21:09:37.440Z,102241.25
2023-02-06T21:14:40.231Z,102237.13
2023-02-06T21:19:42.849Z,102223.81
2023-02-06T21:24:45.656Z,102231.91
2023-02-06T21:29:48.333Z,102242.28
2023-02-06T21:34:51.178Z,102252.56
2023-02-06T21:39:53.865Z,102247.91
2023-02-06T21:44:56.742Z,102269.50
2023-02-06T21:49:59.712Z,102255.25
2023-02-06T21:55:02.835Z,102257.19
2023-02-06T22:00:06.767Z,102270.88
2023-02-06T22:05:15.519Z,102277.06
2023-02-06T22:10:18.444Z,102272.88
2023-02-06T22:15:21.600Z,102297.06
2023-02-06T22:20:24.677Z,102294.28
2023-02-06T22:25:28.533Z,102297.78
2023-02-06T22:30:31.485Z,102311.66
2023-02-06T22:35:34.175Z,102302.25
2023-02-06T22:40:37.162Z,102314.16
2023-02-06T22:45:39.815Z,102319.41
2023-02-06T22:50:42.526Z,102306.44
2023-02-06T22:56:03.720Z,102318.66
2023-02-06T23:01:06.610Z,102325.56
2023-02-06T23:06:11.320Z,102319.56
2023-02-06T23:11:15.448Z,102328.00
2023-02-06T23:16:18.937Z,102328.59
2023-02-06T23:21:23.676Z,102337.00
2023-02-06T23:26:27.565Z,102333.97
2023-02-06T23:31:30.759Z,102320.84
2023-02-06T23:36:33.871Z,102328.44
2023-02-06T23:41:36.618Z,102336.81
2023-02-06T23:46:40.607Z,102332.53
2023-02-06T23:51:43.404Z,102326.41
2023-02-06T23:56:46.319Z,102317.66
